VLG1JK LEGR-LEBL
Flight info
| Callsign | VLG1JK |
|---|---|
| Flight time | 1h 9m |
| Altitude | 34000 |
| Route | VIBAS M985 YES N747 TOSTO M445 BEGOX N860 VLC L34 CASIM N608 MATEX |
| Aircraft | A321/M-SDFGHIJ1LORVWXYZ/LB1 |
Departure
| Time | 2026-04-10 12:30 |
|---|---|
| Airport | F.G.L. Airport Granada-Jaén Airport (LEGR) |
Arrival
| Time | 2026-04-10 13:39 |
|---|---|
| Airport | Josep Tarradellas Barcelona-El Prat Airport (LEBL) |
| Time | Latitude | Longitude | Altitude | Speed | Heading |
|---|---|---|---|---|---|
| 2026-04-10 11:42 | 37.18567 | -3.77679 | 1871 ft | 0 kts | 269° |
| 2026-04-10 12:23 | 37.18567 | -3.77699 | 1871 ft | 5 kts | 270° |
| 2026-04-10 12:23 | 37.18595 | -3.77751 | 1870 ft | 9 kts | 330° |
| 2026-04-10 12:23 | 37.18671 | -3.77761 | 1868 ft | 11 kts | 357° |
| 2026-04-10 12:23 | 37.18707 | -3.77832 | 1868 ft | 11 kts | 272° |
| 2026-04-10 12:24 | 37.18706 | -3.77935 | 1869 ft | 13 kts | 269° |
| 2026-04-10 12:24 | 37.18706 | -3.78069 | 1867 ft | 17 kts | 269° |
| 2026-04-10 12:24 | 37.18705 | -3.78230 | 1867 ft | 19 kts | 269° |
| 2026-04-10 12:24 | 37.18703 | -3.78393 | 1869 ft | 19 kts | 269° |
| 2026-04-10 12:25 | 37.18703 | -3.78504 | 1869 ft | 20 kts | 269° |
| 2026-04-10 12:25 | 37.18701 | -3.78688 | 1868 ft | 22 kts | 269° |
| 2026-04-10 12:25 | 37.18699 | -3.78875 | 1870 ft | 22 kts | 269° |
| 2026-04-10 12:25 | 37.18698 | -3.79072 | 1867 ft | 24 kts | 270° |
| 2026-04-10 12:26 | 37.18697 | -3.79236 | 1867 ft | 15 kts | 269° |
| 2026-04-10 12:26 | 37.18700 | -3.79363 | 1867 ft | 14 kts | 285° |
| 2026-04-10 12:26 | 37.18753 | -3.79398 | 1866 ft | 2 kts | 13° |
| 2026-04-10 12:28 | 37.18776 | -3.79386 | 1860 ft | 8 kts | 28° |
| 2026-04-10 12:28 | 37.18840 | -3.79337 | 1865 ft | 10 kts | 32° |
| 2026-04-10 12:29 | 37.18862 | -3.79277 | 1866 ft | 6 kts | 88° |
| 2026-04-10 12:29 | 37.18862 | -3.79272 | 1866 ft | 0 kts | 88° |
| 2026-04-10 12:29 | 37.18863 | -3.79020 | 1870 ft | 65 kts | 89° |
| 2026-04-10 12:30 | 37.18872 | -3.78164 | 1870 ft | 129 kts | 89° |
| 2026-04-10 12:30 | 37.18884 | -3.76824 | 1958 ft | 169 kts | 86° |
| 2026-04-10 12:30 | 37.18891 | -3.75376 | 2650 ft | 164 kts | 88° |
| 2026-04-10 12:30 | 37.18884 | -3.73931 | 3236 ft | 171 kts | 86° |
| 2026-04-10 12:31 | 37.18896 | -3.72368 | 3484 ft | 193 kts | 86° |
| 2026-04-10 12:31 | 37.18919 | -3.70599 | 3811 ft | 212 kts | 85° |
| 2026-04-10 12:31 | 37.18936 | -3.68690 | 4116 ft | 227 kts | 85° |
| 2026-04-10 12:31 | 37.19154 | -3.66686 | 4549 ft | 235 kts | 69° |
| 2026-04-10 12:32 | 37.20057 | -3.65010 | 5256 ft | 235 kts | 44° |
| 2026-04-10 12:32 | 37.21541 | -3.64043 | 5889 ft | 247 kts | 18° |
| 2026-04-10 12:32 | 37.23310 | -3.63918 | 6200 ft | 271 kts | 2° |
| 2026-04-10 12:32 | 37.25263 | -3.63857 | 6570 ft | 288 kts | 7° |
| 2026-04-10 12:33 | 37.27294 | -3.63674 | 7117 ft | 299 kts | 8° |
| 2026-04-10 12:33 | 37.29400 | -3.63505 | 7710 ft | 307 kts | 7° |
| 2026-04-10 12:33 | 37.31546 | -3.63380 | 8382 ft | 310 kts | 6° |
| 2026-04-10 12:33 | 37.33714 | -3.63281 | 9051 ft | 313 kts | 5° |
| 2026-04-10 12:34 | 37.35902 | -3.63157 | 9710 ft | 315 kts | 12° |
| 2026-04-10 12:34 | 37.38002 | -3.62416 | 10243 ft | 318 kts | 28° |
| 2026-04-10 12:34 | 37.40037 | -3.61126 | 10355 ft | 338 kts | 36° |
| 2026-04-10 12:34 | 37.42021 | -3.59403 | 10535 ft | 353 kts | 44° |
| 2026-04-10 12:35 | 37.43831 | -3.57300 | 11126 ft | 355 kts | 50° |
| 2026-04-10 12:35 | 37.45541 | -3.55047 | 11779 ft | 357 kts | 52° |
| 2026-04-10 12:35 | 37.47245 | -3.52749 | 12375 ft | 361 kts | 52° |
| 2026-04-10 12:35 | 37.48965 | -3.50465 | 12937 ft | 367 kts | 51° |
| 2026-04-10 12:36 | 37.50757 | -3.48143 | 13501 ft | 371 kts | 51° |
| 2026-04-10 12:36 | 37.52564 | -3.45800 | 14074 ft | 375 kts | 51° |
| 2026-04-10 12:36 | 37.54379 | -3.43432 | 14655 ft | 378 kts | 50° |
| 2026-04-10 12:36 | 37.56219 | -3.41037 | 15211 ft | 381 kts | 50° |
| 2026-04-10 12:37 | 37.58071 | -3.38628 | 15777 ft | 385 kts | 50° |
| 2026-04-10 12:37 | 37.59938 | -3.36190 | 16335 ft | 388 kts | 50° |
| 2026-04-10 12:37 | 37.61817 | -3.33732 | 16890 ft | 391 kts | 50° |
| 2026-04-10 12:37 | 37.63715 | -3.31253 | 17426 ft | 394 kts | 49° |
| 2026-04-10 12:38 | 37.65637 | -3.28748 | 17937 ft | 398 kts | 49° |
| 2026-04-10 12:38 | 37.67563 | -3.26223 | 18480 ft | 401 kts | 49° |
| 2026-04-10 12:38 | 37.69505 | -3.23678 | 19001 ft | 404 kts | 49° |
| 2026-04-10 12:38 | 37.71464 | -3.21117 | 19502 ft | 408 kts | 49° |
| 2026-04-10 12:39 | 37.73435 | -3.18527 | 20007 ft | 411 kts | 49° |
| 2026-04-10 12:39 | 37.75414 | -3.15946 | 20502 ft | 415 kts | 49° |
| 2026-04-10 12:39 | 37.77418 | -3.13312 | 20990 ft | 417 kts | 49° |
| 2026-04-10 12:39 | 37.79433 | -3.10652 | 21456 ft | 421 kts | 49° |
| 2026-04-10 12:40 | 37.81467 | -3.07972 | 21900 ft | 424 kts | 49° |
| 2026-04-10 12:40 | 37.83515 | -3.05264 | 22334 ft | 427 kts | 50° |
| 2026-04-10 12:40 | 37.85285 | -3.02264 | 22722 ft | 425 kts | 62° |
| 2026-04-10 12:40 | 37.86816 | -2.99045 | 23123 ft | 428 kts | 62° |
| 2026-04-10 12:41 | 37.88355 | -2.95805 | 23519 ft | 431 kts | 62° |
| 2026-04-10 12:41 | 37.89905 | -2.92542 | 23889 ft | 434 kts | 62° |
| 2026-04-10 12:41 | 37.91467 | -2.89245 | 24229 ft | 438 kts | 62° |
| 2026-04-10 12:41 | 37.93050 | -2.85932 | 24578 ft | 441 kts | 62° |
| 2026-04-10 12:42 | 37.94642 | -2.82597 | 24945 ft | 443 kts | 62° |
| 2026-04-10 12:42 | 37.96242 | -2.79239 | 25266 ft | 446 kts | 62° |
| 2026-04-10 12:42 | 37.97827 | -2.75910 | 25622 ft | 448 kts | 62° |
| 2026-04-10 12:42 | 37.99432 | -2.72514 | 25943 ft | 451 kts | 62° |
| 2026-04-10 12:43 | 38.01054 | -2.69091 | 26277 ft | 454 kts | 62° |
| 2026-04-10 12:43 | 38.02681 | -2.65657 | 26620 ft | 455 kts | 62° |
| 2026-04-10 12:43 | 38.04320 | -2.62205 | 26938 ft | 458 kts | 62° |
| 2026-04-10 12:43 | 38.05960 | -2.58736 | 27238 ft | 460 kts | 62° |
| 2026-04-10 12:44 | 38.07610 | -2.55252 | 27527 ft | 462 kts | 62° |
| 2026-04-10 12:44 | 38.09262 | -2.51743 | 27803 ft | 464 kts | 62° |
| 2026-04-10 12:44 | 38.10920 | -2.48218 | 28081 ft | 466 kts | 62° |
| 2026-04-10 12:44 | 38.12588 | -2.44678 | 28365 ft | 468 kts | 62° |
| 2026-04-10 12:45 | 38.14267 | -2.41119 | 28640 ft | 470 kts | 62° |
| 2026-04-10 12:45 | 38.15948 | -2.37542 | 28899 ft | 472 kts | 62° |
| 2026-04-10 12:45 | 38.17629 | -2.33954 | 29160 ft | 474 kts | 62° |
| 2026-04-10 12:45 | 38.19320 | -2.30347 | 29389 ft | 476 kts | 62° |
| 2026-04-10 12:46 | 38.21019 | -2.26725 | 29629 ft | 477 kts | 62° |
| 2026-04-10 12:46 | 38.22716 | -2.23092 | 29864 ft | 479 kts | 63° |
| 2026-04-10 12:46 | 38.24422 | -2.19444 | 30120 ft | 480 kts | 63° |
| 2026-04-10 12:46 | 38.26128 | -2.15779 | 30327 ft | 482 kts | 63° |
| 2026-04-10 12:47 | 38.27837 | -2.12102 | 30536 ft | 483 kts | 63° |
| 2026-04-10 12:47 | 38.29520 | -2.08476 | 30816 ft | 481 kts | 63° |
| 2026-04-10 12:47 | 38.31221 | -2.04814 | 31120 ft | 480 kts | 63° |
| 2026-04-10 12:47 | 38.32923 | -2.01154 | 31401 ft | 479 kts | 63° |
| 2026-04-10 12:48 | 38.34613 | -1.97504 | 31695 ft | 478 kts | 62° |
| 2026-04-10 12:48 | 38.36341 | -1.93886 | 31961 ft | 478 kts | 58° |
| 2026-04-10 12:48 | 38.38331 | -1.90481 | 32223 ft | 480 kts | 54° |
| 2026-04-10 12:48 | 38.40398 | -1.87141 | 32505 ft | 479 kts | 54° |
| 2026-04-10 12:49 | 38.42462 | -1.83808 | 32781 ft | 478 kts | 54° |
| 2026-04-10 12:49 | 38.44512 | -1.80482 | 33051 ft | 477 kts | 54° |
| 2026-04-10 12:49 | 38.46553 | -1.77156 | 33311 ft | 476 kts | 54° |
| 2026-04-10 12:49 | 38.48591 | -1.73834 | 33572 ft | 474 kts | 54° |
| 2026-04-10 12:50 | 38.50617 | -1.70518 | 33828 ft | 474 kts | 54° |
| 2026-04-10 12:50 | 38.52638 | -1.67214 | 34056 ft | 470 kts | 54° |
| 2026-04-10 12:50 | 38.54636 | -1.63931 | 34119 ft | 466 kts | 54° |
| 2026-04-10 12:51 | 38.58606 | -1.57432 | 34118 ft | 463 kts | 54° |
| 2026-04-10 12:51 | 38.62548 | -1.50954 | 34118 ft | 463 kts | 54° |
| 2026-04-10 12:52 | 38.66506 | -1.44444 | 34118 ft | 464 kts | 54° |
| 2026-04-10 12:52 | 38.70465 | -1.37913 | 34119 ft | 464 kts | 54° |
| 2026-04-10 12:53 | 38.74418 | -1.31390 | 34121 ft | 464 kts | 54° |
| 2026-04-10 12:53 | 38.78627 | -1.25121 | 34125 ft | 467 kts | 39° |
| 2026-04-10 12:54 | 38.83851 | -1.20227 | 34136 ft | 468 kts | 37° |
| 2026-04-10 12:54 | 38.89102 | -1.15273 | 34132 ft | 468 kts | 37° |
| 2026-04-10 12:55 | 38.94359 | -1.10315 | 34131 ft | 468 kts | 37° |
| 2026-04-10 12:55 | 38.99612 | -1.05351 | 34133 ft | 468 kts | 37° |
| 2026-04-10 12:56 | 39.04852 | -1.00370 | 34138 ft | 468 kts | 37° |
| 2026-04-10 12:56 | 39.10066 | -0.95423 | 34137 ft | 468 kts | 37° |
| 2026-04-10 12:57 | 39.15338 | -0.90403 | 34136 ft | 468 kts | 37° |
| 2026-04-10 12:57 | 39.20539 | -0.85446 | 34136 ft | 467 kts | 37° |
| 2026-04-10 12:58 | 39.25763 | -0.80462 | 34131 ft | 467 kts | 37° |
| 2026-04-10 12:58 | 39.30977 | -0.75462 | 34128 ft | 467 kts | 37° |
| 2026-04-10 12:59 | 39.36197 | -0.70467 | 34128 ft | 467 kts | 37° |
| 2026-04-10 12:59 | 39.41412 | -0.65445 | 34127 ft | 467 kts | 37° |
| 2026-04-10 13:00 | 39.46610 | -0.60446 | 34127 ft | 468 kts | 37° |
| 2026-04-10 13:00 | 39.51828 | -0.55409 | 34127 ft | 468 kts | 37° |
| 2026-04-10 13:01 | 39.57044 | -0.50368 | 34127 ft | 468 kts | 37° |
| 2026-04-10 13:01 | 39.62261 | -0.45326 | 34126 ft | 468 kts | 37° |
| 2026-04-10 13:02 | 39.67446 | -0.40286 | 34129 ft | 468 kts | 37° |
| 2026-04-10 13:02 | 39.72667 | -0.35230 | 34128 ft | 468 kts | 37° |
| 2026-04-10 13:03 | 39.77871 | -0.30142 | 34127 ft | 467 kts | 37° |
| 2026-04-10 13:03 | 39.83076 | -0.25068 | 34128 ft | 468 kts | 37° |
| 2026-04-10 13:04 | 39.88282 | -0.19982 | 34132 ft | 468 kts | 37° |
| 2026-04-10 13:04 | 39.93480 | -0.14885 | 34133 ft | 467 kts | 37° |
| 2026-04-10 13:05 | 39.98672 | -0.09792 | 34134 ft | 467 kts | 37° |
| 2026-04-10 13:05 | 40.03875 | -0.04675 | 34142 ft | 466 kts | 37° |
| 2026-04-10 13:06 | 40.08940 | 0.00315 | 34118 ft | 455 kts | 37° |
| 2026-04-10 13:06 | 40.14002 | 0.05310 | 34127 ft | 459 kts | 36° |
| 2026-04-10 13:07 | 40.19142 | 0.10387 | 33603 ft | 466 kts | 35° |
| 2026-04-10 13:07 | 40.21797 | 0.12876 | 32302 ft | 476 kts | 28° |
| 2026-04-10 13:07 | 40.24773 | 0.14810 | 31258 ft | 477 kts | 18° |
| 2026-04-10 13:07 | 40.27898 | 0.16114 | 30856 ft | 464 kts | 13° |
| 2026-04-10 13:08 | 40.30967 | 0.17250 | 30595 ft | 452 kts | 13° |
| 2026-04-10 13:08 | 40.33963 | 0.18363 | 30245 ft | 444 kts | 13° |
| 2026-04-10 13:08 | 40.36916 | 0.19477 | 29697 ft | 439 kts | 13° |
| 2026-04-10 13:09 | 40.42722 | 0.21676 | 28693 ft | 430 kts | 13° |
| 2026-04-10 13:09 | 40.45547 | 0.22730 | 28191 ft | 425 kts | 13° |
| 2026-04-10 13:09 | 40.48418 | 0.23808 | 27661 ft | 422 kts | 15° |
| 2026-04-10 13:09 | 40.51088 | 0.25261 | 27171 ft | 421 kts | 27° |
| 2026-04-10 13:10 | 40.53500 | 0.27420 | 26668 ft | 419 kts | 39° |
| 2026-04-10 13:10 | 40.55523 | 0.30161 | 26187 ft | 417 kts | 51° |
| 2026-04-10 13:10 | 40.57075 | 0.33360 | 25673 ft | 415 kts | 64° |
| 2026-04-10 13:10 | 40.58122 | 0.36874 | 25178 ft | 412 kts | 72° |
| 2026-04-10 13:11 | 40.58969 | 0.40465 | 24680 ft | 410 kts | 73° |
| 2026-04-10 13:11 | 40.59808 | 0.44045 | 24182 ft | 407 kts | 72° |
| 2026-04-10 13:11 | 40.60646 | 0.47590 | 23717 ft | 404 kts | 72° |
| 2026-04-10 13:11 | 40.61481 | 0.51122 | 23184 ft | 402 kts | 72° |
| 2026-04-10 13:12 | 40.62300 | 0.54633 | 22697 ft | 399 kts | 73° |
| 2026-04-10 13:12 | 40.63114 | 0.58105 | 22204 ft | 395 kts | 72° |
| 2026-04-10 13:12 | 40.63922 | 0.61555 | 21736 ft | 392 kts | 72° |
| 2026-04-10 13:12 | 40.64713 | 0.64921 | 21244 ft | 389 kts | 72° |
| 2026-04-10 13:13 | 40.65513 | 0.68300 | 20767 ft | 385 kts | 72° |
| 2026-04-10 13:13 | 40.66294 | 0.71654 | 20294 ft | 381 kts | 73° |
| 2026-04-10 13:13 | 40.67057 | 0.74965 | 19823 ft | 376 kts | 73° |
| 2026-04-10 13:13 | 40.67818 | 0.78237 | 19357 ft | 372 kts | 72° |
| 2026-04-10 13:14 | 40.68578 | 0.81477 | 18892 ft | 368 kts | 73° |
| 2026-04-10 13:14 | 40.69321 | 0.84681 | 18434 ft | 364 kts | 72° |
| 2026-04-10 13:14 | 40.70058 | 0.87859 | 17971 ft | 361 kts | 73° |
| 2026-04-10 13:14 | 40.70779 | 0.91003 | 17518 ft | 357 kts | 73° |
| 2026-04-10 13:15 | 40.71498 | 0.94113 | 17066 ft | 353 kts | 72° |
| 2026-04-10 13:15 | 40.72212 | 0.97197 | 16618 ft | 350 kts | 72° |
| 2026-04-10 13:15 | 40.72909 | 1.00229 | 16373 ft | 339 kts | 72° |
| 2026-04-10 13:15 | 40.73581 | 1.03144 | 16254 ft | 326 kts | 72° |
| 2026-04-10 13:16 | 40.74230 | 1.05959 | 16113 ft | 315 kts | 72° |
| 2026-04-10 13:16 | 40.74861 | 1.08707 | 15949 ft | 319 kts | 72° |
| 2026-04-10 13:16 | 40.75505 | 1.11517 | 15778 ft | 328 kts | 72° |
| 2026-04-10 13:16 | 40.76168 | 1.14399 | 15570 ft | 329 kts | 72° |
| 2026-04-10 13:17 | 40.76829 | 1.17284 | 15384 ft | 329 kts | 72° |
| 2026-04-10 13:17 | 40.77488 | 1.20170 | 15200 ft | 328 kts | 72° |
| 2026-04-10 13:17 | 40.78139 | 1.23047 | 15030 ft | 327 kts | 72° |
| 2026-04-10 13:17 | 40.78790 | 1.25913 | 14826 ft | 326 kts | 72° |
| 2026-04-10 13:18 | 40.79444 | 1.28775 | 14649 ft | 325 kts | 72° |
| 2026-04-10 13:18 | 40.80098 | 1.31634 | 14462 ft | 325 kts | 72° |
| 2026-04-10 13:18 | 40.80746 | 1.34482 | 14294 ft | 324 kts | 72° |
| 2026-04-10 13:18 | 40.81172 | 1.36369 | 14162 ft | 324 kts | 72° |
| 2026-04-10 13:19 | 40.81818 | 1.39209 | 13975 ft | 322 kts | 72° |
| 2026-04-10 13:19 | 40.82463 | 1.42035 | 13790 ft | 322 kts | 72° |
| 2026-04-10 13:19 | 40.83099 | 1.44867 | 13613 ft | 321 kts | 72° |
| 2026-04-10 13:19 | 40.83727 | 1.47692 | 13429 ft | 320 kts | 72° |
| 2026-04-10 13:20 | 40.84361 | 1.50511 | 13240 ft | 319 kts | 72° |
| 2026-04-10 13:20 | 40.84993 | 1.53320 | 13057 ft | 319 kts | 72° |
| 2026-04-10 13:20 | 40.85625 | 1.56128 | 12898 ft | 318 kts | 72° |
| 2026-04-10 13:20 | 40.86256 | 1.58934 | 12701 ft | 317 kts | 71° |
| 2026-04-10 13:21 | 40.86883 | 1.61723 | 12516 ft | 316 kts | 72° |
| 2026-04-10 13:21 | 40.87370 | 1.64554 | 12341 ft | 317 kts | 80° |
| 2026-04-10 13:21 | 40.87678 | 1.67435 | 12170 ft | 317 kts | 81° |
| 2026-04-10 13:21 | 40.87981 | 1.70315 | 11983 ft | 316 kts | 80° |
| 2026-04-10 13:22 | 40.88286 | 1.73186 | 11805 ft | 315 kts | 80° |
| 2026-04-10 13:22 | 40.88595 | 1.76047 | 11629 ft | 314 kts | 80° |
| 2026-04-10 13:22 | 40.88896 | 1.78864 | 11465 ft | 313 kts | 81° |
| 2026-04-10 13:22 | 40.89195 | 1.81706 | 11278 ft | 312 kts | 81° |
| 2026-04-10 13:23 | 40.89503 | 1.84539 | 11096 ft | 311 kts | 81° |
| 2026-04-10 13:23 | 40.89806 | 1.87357 | 10913 ft | 310 kts | 81° |
| 2026-04-10 13:23 | 40.90107 | 1.90171 | 10747 ft | 308 kts | 81° |
| 2026-04-10 13:23 | 40.90404 | 1.92978 | 10561 ft | 308 kts | 81° |
| 2026-04-10 13:24 | 40.90692 | 1.95773 | 10390 ft | 307 kts | 81° |
| 2026-04-10 13:24 | 40.90981 | 1.98559 | 10220 ft | 306 kts | 81° |
| 2026-04-10 13:24 | 40.91275 | 2.01341 | 10049 ft | 305 kts | 81° |
| 2026-04-10 13:24 | 40.91575 | 2.04109 | 9866 ft | 303 kts | 79° |
| 2026-04-10 13:25 | 40.92181 | 2.06753 | 9701 ft | 300 kts | 63° |
| 2026-04-10 13:25 | 40.93303 | 2.09063 | 9533 ft | 298 kts | 47° |
| 2026-04-10 13:25 | 40.94840 | 2.10865 | 9359 ft | 295 kts | 31° |
| 2026-04-10 13:25 | 40.96607 | 2.12237 | 9198 ft | 294 kts | 27° |
| 2026-04-10 13:26 | 40.98391 | 2.13561 | 9026 ft | 293 kts | 28° |
| 2026-04-10 13:26 | 41.00173 | 2.14890 | 8858 ft | 293 kts | 28° |
| 2026-04-10 13:26 | 41.01944 | 2.16222 | 8705 ft | 293 kts | 28° |
| 2026-04-10 13:26 | 41.03715 | 2.17553 | 8527 ft | 292 kts | 28° |
| 2026-04-10 13:27 | 41.05478 | 2.18883 | 8364 ft | 291 kts | 28° |
| 2026-04-10 13:27 | 41.07231 | 2.20210 | 8197 ft | 290 kts | 28° |
| 2026-04-10 13:27 | 41.08982 | 2.21532 | 8041 ft | 289 kts | 28° |
| 2026-04-10 13:27 | 41.10706 | 2.22830 | 7878 ft | 289 kts | 28° |
| 2026-04-10 13:28 | 41.12452 | 2.24149 | 7709 ft | 288 kts | 28° |
| 2026-04-10 13:28 | 41.14190 | 2.25462 | 7544 ft | 287 kts | 28° |
| 2026-04-10 13:28 | 41.15918 | 2.26779 | 7397 ft | 286 kts | 28° |
| 2026-04-10 13:28 | 41.17536 | 2.28311 | 7225 ft | 286 kts | 42° |
| 2026-04-10 13:29 | 41.18821 | 2.30329 | 7055 ft | 287 kts | 55° |
| 2026-04-10 13:29 | 41.19908 | 2.32544 | 6899 ft | 286 kts | 56° |
| 2026-04-10 13:29 | 41.20986 | 2.34764 | 6725 ft | 285 kts | 56° |
| 2026-04-10 13:29 | 41.22053 | 2.36951 | 6574 ft | 279 kts | 56° |
| 2026-04-10 13:30 | 41.23101 | 2.39056 | 6391 ft | 270 kts | 52° |
| 2026-04-10 13:30 | 41.24480 | 2.40634 | 6191 ft | 257 kts | 24° |
| 2026-04-10 13:30 | 41.26158 | 2.41171 | 6061 ft | 244 kts | 357° |
| 2026-04-10 13:30 | 41.27795 | 2.40678 | 5930 ft | 241 kts | 335° |
| 2026-04-10 13:31 | 41.29326 | 2.39762 | 5782 ft | 241 kts | 334° |
| 2026-04-10 13:31 | 41.30911 | 2.39206 | 5645 ft | 242 kts | 0° |
| 2026-04-10 13:31 | 41.32532 | 2.39828 | 5517 ft | 244 kts | 34° |
| 2026-04-10 13:31 | 41.33609 | 2.41499 | 5384 ft | 244 kts | 63° |
| 2026-04-10 13:32 | 41.34323 | 2.43557 | 5277 ft | 245 kts | 66° |
| 2026-04-10 13:32 | 41.35052 | 2.45595 | 5039 ft | 243 kts | 53° |
| 2026-04-10 13:32 | 41.36299 | 2.46999 | 4719 ft | 235 kts | 23° |
| 2026-04-10 13:32 | 41.37890 | 2.47311 | 4267 ft | 233 kts | 350° |
| 2026-04-10 13:33 | 41.39337 | 2.46442 | 3832 ft | 230 kts | 317° |
| 2026-04-10 13:33 | 41.40142 | 2.44686 | 3636 ft | 219 kts | 283° |
| 2026-04-10 13:33 | 41.40259 | 2.42734 | 3470 ft | 208 kts | 272° |
| 2026-04-10 13:33 | 41.40305 | 2.40821 | 3150 ft | 206 kts | 272° |
| 2026-04-10 13:34 | 41.40211 | 2.38914 | 3019 ft | 208 kts | 254° |
| 2026-04-10 13:34 | 41.39669 | 2.37126 | 3014 ft | 209 kts | 246° |
| 2026-04-10 13:34 | 41.39071 | 2.35359 | 3025 ft | 209 kts | 246° |
| 2026-04-10 13:34 | 41.38474 | 2.33595 | 3032 ft | 209 kts | 246° |
| 2026-04-10 13:35 | 41.37875 | 2.31832 | 3020 ft | 208 kts | 246° |
| 2026-04-10 13:35 | 41.37309 | 2.30164 | 3022 ft | 187 kts | 246° |
| 2026-04-10 13:35 | 41.36793 | 2.28639 | 2922 ft | 180 kts | 246° |
| 2026-04-10 13:35 | 41.36278 | 2.27118 | 2725 ft | 180 kts | 246° |
| 2026-04-10 13:36 | 41.35760 | 2.25596 | 2483 ft | 181 kts | 246° |
| 2026-04-10 13:36 | 41.35245 | 2.24084 | 2236 ft | 182 kts | 246° |
| 2026-04-10 13:36 | 41.34719 | 2.22538 | 1993 ft | 183 kts | 246° |
| 2026-04-10 13:36 | 41.34208 | 2.21038 | 1747 ft | 172 kts | 247° |
| 2026-04-10 13:37 | 41.33739 | 2.19658 | 1530 ft | 157 kts | 246° |
| 2026-04-10 13:37 | 41.33304 | 2.18385 | 1343 ft | 144 kts | 245° |
| 2026-04-10 13:37 | 41.32899 | 2.17197 | 1132 ft | 138 kts | 244° |
| 2026-04-10 13:37 | 41.32501 | 2.16042 | 931 ft | 137 kts | 243° |
| 2026-04-10 13:38 | 41.32110 | 2.14902 | 768 ft | 135 kts | 244° |
| 2026-04-10 13:38 | 41.31724 | 2.13758 | 617 ft | 136 kts | 243° |
| 2026-04-10 13:38 | 41.31332 | 2.12611 | 436 ft | 136 kts | 244° |
| 2026-04-10 13:38 | 41.30940 | 2.11462 | 255 ft | 137 kts | 243° |
| 2026-04-10 13:39 | 41.30550 | 2.10307 | 60 ft | 137 kts | 244° |
| 2026-04-10 13:39 | 41.30192 | 2.09258 | 18 ft | 106 kts | 245° |
| 2026-04-10 13:39 | 41.29957 | 2.08581 | 25 ft | 56 kts | 245° |
| 2026-04-10 13:39 | 41.29800 | 2.08280 | 21 ft | 28 kts | 217° |
| 2026-04-10 13:40 | 41.29700 | 2.08192 | 17 ft | 6 kts | 193° |
| 2026-04-10 13:40 | 41.29691 | 2.08192 | 16 ft | 0 kts | 182° |
| 2026-04-10 13:42 | 41.29686 | 2.08192 | 16 ft | 4 kts | 176° |
| 2026-04-10 13:42 | 41.29636 | 2.08216 | 18 ft | 11 kts | 156° |
| 2026-04-10 13:43 | 41.29546 | 2.08270 | 16 ft | 16 kts | 155° |
| 2026-04-10 13:43 | 41.29444 | 2.08331 | 19 ft | 17 kts | 155° |
| 2026-04-10 13:43 | 41.29340 | 2.08394 | 21 ft | 16 kts | 156° |
| 2026-04-10 13:43 | 41.29238 | 2.08448 | 21 ft | 15 kts | 171° |
| 2026-04-10 13:44 | 41.29129 | 2.08413 | 19 ft | 18 kts | 199° |
| 2026-04-10 13:44 | 41.29004 | 2.08355 | 19 ft | 17 kts | 199° |
| 2026-04-10 13:44 | 41.28882 | 2.08301 | 17 ft | 19 kts | 199° |
| 2026-04-10 13:44 | 41.28772 | 2.08227 | 17 ft | 16 kts | 233° |
| 2026-04-10 13:45 | 41.28719 | 2.08080 | 15 ft | 19 kts | 245° |
| 2026-04-10 13:45 | 41.28680 | 2.07955 | 16 ft | 13 kts | 252° |
| 2026-04-10 13:45 | 41.28645 | 2.07838 | 16 ft | 14 kts | 246° |
| 2026-04-10 13:45 | 41.28627 | 2.07784 | 17 ft | 0 kts | 246° |
| 2026-04-10 13:46 | 41.28622 | 2.07770 | 17 ft | 4 kts | 246° |
| 2026-04-10 13:46 | 41.28608 | 2.07724 | 17 ft | 7 kts | 255° |
| 2026-04-10 13:46 | 41.28630 | 2.07672 | 21 ft | 7 kts | 318° |
| 2026-04-10 13:46 | 41.28663 | 2.07635 | 19 ft | 5 kts | 320° |
| 2026-04-10 13:47 | 41.28673 | 2.07624 | 19 ft | 0 kts | 320° |